Terminal Aerodrome Forecast
Issued by NWS

Home | Current Version | Previous Version | Text Only | Print | Product List | Glossary On
Versions: 1 2 3 4 5 6 7 8 9 10 11 12 13 14 15 16 17 18 19 20 21
000
FTPA31 PHFO 010530
TAFHMK
TAF
PHMK 010530Z 0106/0206 04010G16KT P6SM SCT025 BKN070
     FM012000 05015G22KT P6SM FEW030 SCT060
     FM020500 06011G17KT P6SM SCT025 SCT060=

USA.gov is the U.S. government's official web portal to all federal, state and local government web resources and services.